Time;durP1;ratioP1;P1;durP2;ratioP2;P2;SDS_P1;SDS_P2;PMS_P1;PMS_P2;Temp;Humidity;BMP_temperature;BMP_pressure;BME280_temperature;BME280_humidity;BME280_pressure;Samples;Min_cycle;Max_cycle;Signal;HPM_P1;HPM_P2
2023/10/28 00:00:50;;;;;;;45.95;7.95;;;;;;;;;;5072324;28;20044;-74
2023/10/28 00:03:17;;;;;;;53.67;7.82;;;;;;;;;;5070289;28;20119;-73
2023/10/28 00:05:44;;;;;;;64.78;7.38;;;;;;;;;;5071919;28;20044;-74
2023/10/28 00:08:11;;;;;;;53.35;7.78;;;;;;;;;;5069338;28;20041;-73
2023/10/28 00:10:40;;;;;;;52.97;7.50;;;;;;;;;;5070024;28;20384;-73
2023/10/28 00:13:08;;;;;;;55.55;8.13;;;;;;;;;;5068275;28;20056;-74
2023/10/28 00:15:36;;;;;;;45.47;7.38;;;;;;;;;;5070310;28;20071;-74
2023/10/28 00:18:03;;;;;;;63.03;8.65;;;;;;;;;;5070711;28;20390;-74
2023/10/28 00:20:29;;;;;;;54.40;7.63;;;;;;;;;;5068717;28;20059;-73
2023/10/28 00:22:57;;;;;;;54.65;6.15;;;;;;;;;;5069026;28;20040;-74
2023/10/28 00:25:31;;;;;;;58.40;7.43;;;;;;;;;;5071281;28;20045;-74
2023/10/28 00:27:58;;;;;;;48.72;7.45;;;;;;;;;;5070367;28;20036;-74
2023/10/28 00:30:26;;;;;;;75.57;7.65;;;;;;;;;;5070902;28;20051;-74
2023/10/28 00:32:56;;;;;;;46.42;7.35;;;;;;;;;;5053671;28;20378;-74
2023/10/28 00:35:23;;;;;;;46.88;7.28;;;;;;;;;;5071106;28;20376;-74
2023/10/28 00:37:50;;;;;;;55.63;7.43;;;;;;;;;;5071498;28;20037;-73
2023/10/28 00:40:17;;;;;;;57.47;7.30;;;;;;;;;;5070946;28;20474;-74
2023/10/28 00:42:45;;;;;;;54.20;7.63;;;;;;;;;;5053243;28;20040;-73
2023/10/28 00:45:13;;;;;;;50.28;7.63;;;;;;;;;;5071025;28;20044;-74
2023/10/28 00:47:43;;;;;;;49.42;6.72;;;;;;;;;;5069817;28;20115;-74
2023/10/28 00:50:12;;;;;;;47.97;7.45;;;;;;;;;;5071178;28;20047;-74
2023/10/28 00:52:39;;;;;;;;;;;;;;;;;;5070291;28;20052;-74
2023/10/28 00:55:11;;;;;;;36.40;6.55;;;;;;;;;;5070925;28;19973;-74
2023/10/28 00:57:43;;;;;;;37.78;5.97;;;;;;;;;;5069518;28;20064;-74
2023/10/28 01:00:11;;;;;;;40.67;6.40;;;;;;;;;;5071109;28;20044;-74
2023/10/28 01:02:40;;;;;;;42.50;6.25;;;;;;;;;;5052613;28;20090;-74
2023/10/28 01:05:14;;;;;;;44.38;6.22;;;;;;;;;;5069310;28;20071;-74
2023/10/28 01:07:46;;;;;;;40.38;6.78;;;;;;;;;;5070873;28;20043;-74
2023/10/28 01:10:27;;;;;;;36.70;6.13;;;;;;;;;;5070615;28;20410;-74
2023/10/28 01:12:54;;;;;;;31.73;6.05;;;;;;;;;;5069816;28;20036;-74
2023/10/28 01:15:22;;;;;;;30.98;5.65;;;;;;;;;;5070545;28;20041;-74
2023/10/28 01:17:49;;;;;;;24.67;4.65;;;;;;;;;;5070944;28;20047;-73
2023/10/28 01:20:16;;;;;;;26.38;4.60;;;;;;;;;;5070503;28;20041;-73
2023/10/28 01:22:43;;;;;;;24.10;4.85;;;;;;;;;;5070644;28;20047;-74
2023/10/28 01:25:10;;;;;;;25.30;4.13;;;;;;;;;;5069222;28;20060;-74
2023/10/28 01:27:38;;;;;;;23.80;4.03;;;;;;;;;;5069194;28;20425;-73
2023/10/28 01:30:13;;;;;;;29.40;4.18;;;;;;;;;;5069218;28;20045;-73
2023/10/28 01:32:41;;;;;;;23.13;3.85;;;;;;;;;;5069334;28;20051;-74
2023/10/28 01:35:12;;;;;;;33.15;5.35;;;;;;;;;;5069214;28;20487;-73
2023/10/28 01:37:40;;;;;;;25.13;4.53;;;;;;;;;;5069386;28;20041;-74
2023/10/28 01:40:13;;;;;;;21.33;4.18;;;;;;;;;;5070476;28;20059;-75
2023/10/28 01:42:41;;;;;;;33.35;4.88;;;;;;;;;;5070761;28;20060;-74
2023/10/28 01:45:09;;;;;;;25.42;5.35;;;;;;;;;;5070335;28;20036;-74
2023/10/28 01:47:41;;;;;;;33.25;5.47;;;;;;;;;;5069322;28;20056;-74
2023/10/28 01:50:11;;;;;;;24.95;4.05;;;;;;;;;;5068988;28;20037;-74
2023/10/28 01:52:40;;;;;;;32.97;4.80;;;;;;;;;;5070289;28;20045;-73
2023/10/28 01:55:11;;;;;;;32.50;5.38;;;;;;;;;;5070314;28;20048;-74
2023/10/28 01:57:39;;;;;;;35.00;6.30;;;;;;;;;;5070179;28;20101;-74
2023/10/28 02:00:12;;;;;;;29.60;4.88;;;;;;;;;;5070294;28;20029;-73
2023/10/28 02:02:39;;;;;;;29.10;4.50;;;;;;;;;;5070575;28;20041;-74
2023/10/28 02:05:08;;;;;;;34.92;5.25;;;;;;;;;;5070137;28;20534;-74
2023/10/28 02:07:35;;;;;;;27.58;5.13;;;;;;;;;;5070554;28;20094;-74
2023/10/28 02:10:04;;;;;;;33.63;5.18;;;;;;;;;;5070930;28;20040;-73
2023/10/28 02:12:34;;;;;;;30.70;4.80;;;;;;;;;;5071273;28;20053;-74
2023/10/28 02:15:02;;;;;;;36.42;4.78;;;;;;;;;;5073242;28;20041;-74
2023/10/28 02:17:29;;;;;;;49.33;6.60;;;;;;;;;;5073641;28;20478;-74
2023/10/28 02:19:56;;;;;;;42.55;6.05;;;;;;;;;;5072640;28;20083;-74
2023/10/28 02:22:24;;;;;;;38.63;5.90;;;;;;;;;;5073389;28;20137;-73
2023/10/28 02:24:50;;;;;;;38.15;7.00;;;;;;;;;;5074012;28;20249;-74
2023/10/28 02:27:17;;;;;;;34.88;6.13;;;;;;;;;;5073232;28;20040;-74
2023/10/28 02:29:44;;;;;;;46.22;6.07;;;;;;;;;;5055805;28;20479;-73
2023/10/28 02:32:11;;;;;;;45.10;6.32;;;;;;;;;;5073214;28;20048;-74
2023/10/28 02:34:41;;;;;;;55.17;7.70;;;;;;;;;;5073518;28;20040;-74
2023/10/28 02:37:08;;;;;;;56.97;7.15;;;;;;;;;;5072206;28;20466;-74
2023/10/28 02:39:34;;;;;;;48.28;8.23;;;;;;;;;;5073543;28;20335;-74
2023/10/28 02:42:01;;;;;;;58.42;6.88;;;;;;;;;;5073897;28;20051;-74
2023/10/28 02:44:32;;;;;;;51.85;7.18;;;;;;;;;;5073001;28;20044;-74
2023/10/28 02:46:59;;;;;;;62.92;9.05;;;;;;;;;;5073437;28;20136;-74
2023/10/28 02:49:27;;;;;;;59.83;7.55;;;;;;;;;;5071743;28;20548;-74
2023/10/28 02:51:54;;;;;;;55.92;7.45;;;;;;;;;;5073366;28;20425;-73
2023/10/28 02:54:21;;;;;;;46.30;6.82;;;;;;;;;;5073107;28;20067;-74
2023/10/28 02:56:47;;;;;;;43.70;6.47;;;;;;;;;;5073062;28;20044;-73
2023/10/28 02:59:15;;;;;;;54.80;5.90;;;;;;;;;;5073127;28;20475;-74
2023/10/28 03:01:42;;;;;;;44.35;6.13;;;;;;;;;;5073100;28;20032;-74
2023/10/28 03:04:10;;;;;;;39.80;6.32;;;;;;;;;;5073130;28;20077;-74
2023/10/28 03:06:36;;;;;;;45.80;6.37;;;;;;;;;;5073002;28;20064;-74
2023/10/28 03:09:04;;;;;;;48.17;6.85;;;;;;;;;;5071610;28;20071;-74
2023/10/28 03:11:31;;;;;;;34.90;5.32;;;;;;;;;;5073172;28;20368;-74
2023/10/28 03:13:57;;;;;;;48.17;6.85;;;;;;;;;;5073130;28;20055;-75
2023/10/28 03:16:25;;;;;;;45.95;6.22;;;;;;;;;;5072423;28;20079;-74
2023/10/28 03:18:52;;;;;;;55.97;6.97;;;;;;;;;;5073117;28;20589;-74
2023/10/28 03:21:19;;;;;;;44.97;6.93;;;;;;;;;;5072567;28;20045;-74
2023/10/28 03:23:46;;;;;;;44.95;7.18;;;;;;;;;;5072431;28;20159;-74
2023/10/28 03:26:13;;;;;;;51.35;7.03;;;;;;;;;;5072754;28;20098;-73
2023/10/28 03:28:40;;;;;;;59.50;8.52;;;;;;;;;;5071522;28;20037;-75
2023/10/28 03:31:11;;;;;;;46.10;6.35;;;;;;;;;;5072516;28;20119;-75
2023/10/28 03:33:41;;;;;;;48.50;7.45;;;;;;;;;;5072390;28;20041;-74
2023/10/28 03:36:11;;;;;;;52.88;7.63;;;;;;;;;;5072362;28;20042;-74
2023/10/28 03:38:38;;;;;;;46.03;6.63;;;;;;;;;;5071058;28;20045;-74
2023/10/28 03:41:08;;;;;;;45.40;6.00;;;;;;;;;;5072459;28;20391;-74
2023/10/28 03:43:36;;;;;;;49.90;7.47;;;;;;;;;;5072355;28;20539;-74
2023/10/28 03:46:04;;;;;;;41.33;6.93;;;;;;;;;;5072574;28;20634;-74
2023/10/28 03:48:31;;;;;;;44.22;6.85;;;;;;;;;;5072068;28;20044;-75
2023/10/28 03:51:00;;;;;;;43.63;7.75;;;;;;;;;;5072691;28;20036;-74
2023/10/28 03:53:27;;;;;;;30.65;5.20;;;;;;;;;;5071709;28;20059;-74
2023/10/28 03:55:55;;;;;;;51.42;6.03;;;;;;;;;;5072243;28;20311;-73
2023/10/28 03:58:22;;;;;;;34.78;5.13;;;;;;;;;;5071737;28;20123;-74
2023/10/28 04:00:53;;;;;;;37.65;6.13;;;;;;;;;;5072246;28;20041;-74
2023/10/28 04:03:21;;;;;;;31.60;4.80;;;;;;;;;;5070930;28;20056;-74
2023/10/28 04:05:49;;;;;;;25.55;5.03;;;;;;;;;;5072221;28;20391;-74
2023/10/28 04:08:16;;;;;;;28.08;4.32;;;;;;;;;;5072080;28;20037;-74
2023/10/28 04:10:43;;;;;;;31.83;4.60;;;;;;;;;;5070863;28;20043;-74
2023/10/28 04:13:12;;;;;;;26.98;3.97;;;;;;;;;;5070605;28;20041;-75
2023/10/28 04:15:40;;;;;;;28.20;5.03;;;;;;;;;;5070633;28;20032;-74
2023/10/28 04:18:07;;;;;;;31.80;5.35;;;;;;;;;;5053706;28;20123;-74
2023/10/28 04:20:35;;;;;;;42.03;4.75;;;;;;;;;;5070518;28;20045;-74
2023/10/28 04:23:02;;;;;;;42.33;5.75;;;;;;;;;;5072532;28;20094;-74
2023/10/28 04:25:29;;;;;;;44.92;5.78;;;;;;;;;;5070326;28;20032;-74
2023/10/28 04:27:56;;;;;;;40.33;4.90;;;;;;;;;;5071574;28;20040;-75
2023/10/28 04:30:23;;;;;;;42.25;5.35;;;;;;;;;;5069954;28;20128;-73
2023/10/28 04:32:52;;;;;;;31.08;4.82;;;;;;;;;;5071597;28;20506;-74
2023/10/28 04:35:20;;;;;;;33.75;4.95;;;;;;;;;;5046776;28;20045;-75
2023/10/28 04:37:55;;;;;;;26.55;4.43;;;;;;;;;;5090473;28;20123;-74
2023/10/28 04:40:24;;;;;;;30.83;4.28;;;;;;;;;;5090067;28;20131;-74
2023/10/28 04:42:52;;;;;;;34.53;4.95;;;;;;;;;;5092175;28;20479;-73
2023/10/28 04:45:21;;;;;;;29.38;4.63;;;;;;;;;;5091059;28;20046;-73
2023/10/28 04:47:49;;;;;;;22.38;4.00;;;;;;;;;;5091631;28;20162;-74
2023/10/28 04:50:17;;;;;;;33.47;3.80;;;;;;;;;;5090045;28;20060;-73
2023/10/28 04:52:44;;;;;;;27.10;4.60;;;;;;;;;;5090125;28;20432;-73
2023/10/28 04:55:12;;;;;;;26.42;3.88;;;;;;;;;;5089786;28;20055;-74
2023/10/28 04:57:40;;;;;;;;;;;;;;;;;;5070256;28;20033;-74
2023/10/28 05:00:08;;;;;;;25.25;4.22;;;;;;;;;;5071053;28;20355;-74
2023/10/28 05:02:35;;;;;;;23.27;3.78;;;;;;;;;;5070958;28;20036;-73
2023/10/28 05:05:03;;;;;;;26.40;3.92;;;;;;;;;;5071455;28;20040;-74
2023/10/28 05:07:30;;;;;;;30.52;4.35;;;;;;;;;;5069568;28;20045;-74
2023/10/28 05:09:57;;;;;;;29.13;4.05;;;;;;;;;;5071199;28;20244;-74
2023/10/28 05:12:23;;;;;;;34.65;4.55;;;;;;;;;;5069380;28;20032;-74
2023/10/28 05:14:50;;;;;;;28.17;4.65;;;;;;;;;;5069895;28;20040;-73
2023/10/28 05:17:17;;;;;;;25.85;3.70;;;;;;;;;;5063930;28;20037;-74
2023/10/28 05:19:44;;;;;;;31.15;4.03;;;;;;;;;;5067743;28;20129;-74
2023/10/28 05:22:11;;;;;;;20.75;3.80;;;;;;;;;;5071266;28;20064;-73
2023/10/28 05:24:38;;;;;;;25.00;4.28;;;;;;;;;;5072325;28;20040;-74
2023/10/28 05:27:05;;;;;;;27.30;4.60;;;;;;;;;;5070795;28;20147;-73
2023/10/28 05:29:31;;;;;;;29.20;4.20;;;;;;;;;;5054082;28;20041;-74
2023/10/28 05:31:58;;;;;;;25.60;3.88;;;;;;;;;;5071376;28;20044;-75
2023/10/28 05:34:25;;;;;;;27.45;3.85;;;;;;;;;;5069950;28;20421;-74
2023/10/28 05:36:52;;;;;;;28.58;4.30;;;;;;;;;;5071865;28;20037;-73
2023/10/28 05:39:20;;;;;;;29.55;4.32;;;;;;;;;;5070988;28;20040;-74
2023/10/28 05:41:50;;;;;;;28.95;3.67;;;;;;;;;;5071032;28;20041;-74
2023/10/28 05:44:17;;;;;;;27.65;4.38;;;;;;;;;;5070804;28;20045;-74
2023/10/28 05:46:44;;;;;;;30.23;4.10;;;;;;;;;;5071248;28;20053;-74
2023/10/28 05:49:12;;;;;;;30.77;3.80;;;;;;;;;;5073752;28;20041;-73
2023/10/28 05:51:39;;;;;;;24.08;4.03;;;;;;;;;;5073683;28;20044;-74
2023/10/28 05:54:06;;;;;;;28.02;4.22;;;;;;;;;;5074637;28;20044;-73
2023/10/28 05:56:33;;;;;;;25.50;4.55;;;;;;;;;;5074962;28;20415;-73
2023/10/28 05:59:00;;;;;;;30.77;4.10;;;;;;;;;;5075361;28;20098;-74
2023/10/28 06:01:27;;;;;;;32.45;5.28;;;;;;;;;;5073327;28;20045;-73
2023/10/28 06:03:54;;;;;;;31.63;4.70;;;;;;;;;;5075057;28;20127;-74
2023/10/28 06:06:21;;;;;;;39.80;5.63;;;;;;;;;;5074256;28;20121;-74
2023/10/28 06:08:48;;;;;;;42.90;5.93;;;;;;;;;;5073984;28;20048;-73
2023/10/28 06:11:14;;;;;;;46.53;5.15;;;;;;;;;;5074473;28;20048;-73
2023/10/28 06:13:41;;;;;;;28.58;4.60;;;;;;;;;;5075144;28;20418;-74
2023/10/28 06:16:08;;;;;;;32.63;4.47;;;;;;;;;;5074267;28;20382;-74
2023/10/28 06:18:35;;;;;;;36.97;4.40;;;;;;;;;;5074628;28;20094;-73
2023/10/28 06:21:01;;;;;;;27.05;4.18;;;;;;;;;;5073162;28;20032;-73
2023/10/28 06:23:28;;;;;;;35.25;4.18;;;;;;;;;;5074604;28;20052;-73
2023/10/28 06:25:55;;;;;;;25.23;3.53;;;;;;;;;;5072960;28;20036;-74
2023/10/28 06:28:22;;;;;;;24.08;3.60;;;;;;;;;;5074341;28;20425;-73
2023/10/28 06:30:49;;;;;;;28.83;3.90;;;;;;;;;;5072364;28;20036;-73
2023/10/28 06:33:17;;;;;;;27.70;4.13;;;;;;;;;;5073569;28;20055;-74
2023/10/28 06:35:44;;;;;;;26.77;4.63;;;;;;;;;;5073259;28;20044;-74
2023/10/28 06:38:11;;;;;;;24.83;3.20;;;;;;;;;;5073986;28;20036;-75
2023/10/28 06:40:38;;;;;;;26.85;3.88;;;;;;;;;;5074207;28;20044;-74
2023/10/28 06:43:05;;;;;;;32.85;4.43;;;;;;;;;;5063380;28;20053;-73
2023/10/28 06:45:32;;;;;;;23.02;3.45;;;;;;;;;;5053909;28;20052;-75
2023/10/28 06:47:59;;;;;;;30.73;3.80;;;;;;;;;;5064708;28;20059;-74
2023/10/28 06:50:26;;;;;;;23.92;3.15;;;;;;;;;;5053979;28;20075;-74
2023/10/28 06:52:53;;;;;;;29.05;3.63;;;;;;;;;;5051459;28;20141;-74
2023/10/28 06:55:20;;;;;;;26.65;3.78;;;;;;;;;;5053526;28;20068;-74
2023/10/28 06:57:46;;;;;;;33.83;3.65;;;;;;;;;;5053891;28;20055;-75
2023/10/28 07:00:14;;;;;;;27.88;3.45;;;;;;;;;;5051910;28;20119;-74
2023/10/28 07:02:42;;;;;;;34.75;4.43;;;;;;;;;;5049582;28;20472;-74
2023/10/28 07:05:10;;;;;;;25.17;3.05;;;;;;;;;;5053384;28;20052;-74
2023/10/28 07:07:38;;;;;;;31.92;4.40;;;;;;;;;;5054193;28;20127;-74
2023/10/28 07:10:05;;;;;;;39.30;3.33;;;;;;;;;;5053134;28;20040;-75
2023/10/28 07:12:32;;;;;;;41.60;4.93;;;;;;;;;;5054644;28;20076;-74
2023/10/28 07:14:59;;;;;;;29.90;4.18;;;;;;;;;;5050687;28;20392;-75
2023/10/28 07:17:26;;;;;;;29.25;3.60;;;;;;;;;;5053257;28;20047;-75
2023/10/28 07:19:53;;;;;;;28.10;4.22;;;;;;;;;;5035392;28;20036;-75
2023/10/28 07:22:20;;;;;;;36.72;3.95;;;;;;;;;;5053137;28;20068;-74
2023/10/28 07:24:47;;;;;;;34.40;4.38;;;;;;;;;;5053279;28;20376;-74
2023/10/28 07:27:15;;;;;;;37.88;3.75;;;;;;;;;;5052090;28;20045;-75
2023/10/28 07:29:43;;;;;;;24.48;4.55;;;;;;;;;;5053274;28;20045;-74
2023/10/28 07:32:09;;;;;;;33.40;3.45;;;;;;;;;;5048558;28;20037;-75
2023/10/28 07:34:36;;;;;;;35.33;4.78;;;;;;;;;;5052037;28;20049;-74
2023/10/28 07:37:06;;;;;;;36.10;4.07;;;;;;;;;;5051953;28;20045;-75
2023/10/28 07:39:32;;;;;;;28.10;4.30;;;;;;;;;;5070972;28;20040;-75
2023/10/28 07:41:59;;;;;;;28.75;4.18;;;;;;;;;;5072741;28;20044;-74
2023/10/28 07:44:26;;;;;;;37.22;4.90;;;;;;;;;;5068391;28;20344;-75
2023/10/28 07:46:54;;;;;;;29.08;3.90;;;;;;;;;;5069176;28;20297;-75
2023/10/28 07:49:20;;;;;;;44.38;4.20;;;;;;;;;;5068335;28;20063;-74
2023/10/28 07:51:47;;;;;;;29.65;4.30;;;;;;;;;;5069440;28;20047;-74
2023/10/28 07:54:17;;;;;;;26.00;5.53;;;;;;;;;;5065732;28;20418;-74
2023/10/28 07:56:44;;;;;;;29.35;4.20;;;;;;;;;;5069832;28;20041;-75
2023/10/28 07:59:11;;;;;;;17.80;2.72;;;;;;;;;;5070689;28;20041;-74
2023/10/28 08:01:41;;;;;;;35.45;4.05;;;;;;;;;;5071036;28;20356;-75
2023/10/28 08:04:08;;;;;;;34.13;3.30;;;;;;;;;;5069264;28;20051;-74
2023/10/28 08:06:35;;;;;;;38.60;4.50;;;;;;;;;;5069794;28;20048;-75
2023/10/28 08:09:06;;;;;;;33.30;4.07;;;;;;;;;;5071158;28;20032;-75
2023/10/28 08:11:33;;;;;;;31.75;3.53;;;;;;;;;;5053225;28;20047;-75
2023/10/28 08:14:00;;;;;;;26.15;3.83;;;;;;;;;;5070582;28;20048;-75
2023/10/28 08:16:27;;;;;;;31.55;3.53;;;;;;;;;;5070477;28;20043;-74
2023/10/28 08:18:54;;;;;;;30.70;3.50;;;;;;;;;;5070829;28;20135;-75
2023/10/28 08:21:21;;;;;;;25.65;3.08;;;;;;;;;;5070664;28;20489;-74
2023/10/28 08:23:49;;;;;;;29.58;4.00;;;;;;;;;;5070807;28;20051;-74
2023/10/28 08:26:19;;;;;;;31.67;3.75;;;;;;;;;;5070465;28;20040;-74
2023/10/28 08:28:52;;;;;;;24.20;3.78;;;;;;;;;;5070333;28;20064;-75
2023/10/28 08:31:20;;;;;;;39.25;4.72;;;;;;;;;;5069367;28;20082;-74
2023/10/28 08:33:50;;;;;;;38.65;4.05;;;;;;;;;;5065858;28;20483;-74
2023/10/28 08:36:17;;;;;;;28.00;3.63;;;;;;;;;;5049311;28;20056;-73
2023/10/28 08:38:47;;;;;;;36.17;4.87;;;;;;;;;;5048761;28;20045;-74
2023/10/28 08:41:20;;;;;;;35.13;4.18;;;;;;;;;;5050010;28;20044;-74
2023/10/28 08:43:47;;;;;;;31.38;3.83;;;;;;;;;;5048502;28;20170;-74
2023/10/28 08:46:15;;;;;;;26.05;3.10;;;;;;;;;;5058307;28;20044;-74
2023/10/28 08:48:43;;;;;;;38.13;3.72;;;;;;;;;;5056133;28;20127;-73
2023/10/28 08:51:12;;;;;;;32.45;4.43;;;;;;;;;;5066400;28;20048;-73
2023/10/28 08:53:40;;;;;;;33.45;3.50;;;;;;;;;;5064003;28;20037;-73
2023/10/28 08:56:08;;;;;;;39.10;3.78;;;;;;;;;;5048414;28;20049;-74
2023/10/28 08:58:37;;;;;;;39.20;4.60;;;;;;;;;;5048975;28;20170;-74
2023/10/28 09:01:04;;;;;;;31.40;3.72;;;;;;;;;;5047887;28;20049;-73
2023/10/28 09:03:32;;;;;;;38.72;4.70;;;;;;;;;;5050935;28;20132;-74
2023/10/28 09:06:02;;;;;;;27.63;3.50;;;;;;;;;;5050782;28;20044;-74
2023/10/28 09:08:29;;;;;;;32.42;3.28;;;;;;;;;;5054902;28;20554;-74
2023/10/28 09:10:57;;;;;;;33.35;3.83;;;;;;;;;;5075669;28;20062;-74
2023/10/28 09:13:24;;;;;;;33.65;3.83;;;;;;;;;;5070099;28;20060;-74
2023/10/28 09:15:52;;;;;;;27.25;3.70;;;;;;;;;;5070628;28;20453;-74
2023/10/28 09:18:19;;;;;;;32.30;4.87;;;;;;;;;;5069630;28;20044;-74
2023/10/28 09:20:46;;;;;;;32.58;3.70;;;;;;;;;;5077234;28;20051;-75
2023/10/28 09:23:13;;;;;;;34.50;4.03;;;;;;;;;;5068370;28;20045;-73
2023/10/28 09:25:40;;;;;;;31.90;4.03;;;;;;;;;;5071812;28;20124;-74
2023/10/28 09:28:16;;;;;;;22.77;3.88;;;;;;;;;;5082493;28;20040;-74
2023/10/28 09:30:45;;;;;;;25.45;2.65;;;;;;;;;;5091722;28;20036;-73
2023/10/28 09:33:12;;;;;;;;;;;;;;;;;;5090403;28;20054;-73
2023/10/28 09:35:42;;;;;;;17.75;2.08;;;;;;;;;;5089437;28;19920;-74
2023/10/28 09:38:13;;;;;;;20.20;3.22;;;;;;;;;;5090595;28;20032;-74
2023/10/28 09:40:40;;;;;;;21.55;2.80;;;;;;;;;;5090491;28;20417;-73
2023/10/28 09:43:07;;;;;;;21.45;3.08;;;;;;;;;;5090602;28;20044;-73
2023/10/28 09:45:35;;;;;;;28.80;2.85;;;;;;;;;;5089800;28;20040;-74
2023/10/28 09:48:14;;;;;;;23.73;2.70;;;;;;;;;;5091130;28;20101;-73
2023/10/28 09:50:50;;;;;;;18.83;3.05;;;;;;;;;;5092396;28;20121;-73
2023/10/28 09:53:23;;;;;;;23.33;3.42;;;;;;;;;;5092423;28;20402;-73
2023/10/28 09:55:55;;;;;;;19.45;2.85;;;;;;;;;;5085675;28;20475;-74
2023/10/28 09:58:42;;;;;;;29.63;3.70;;;;;;;;;;5070657;28;20272;-74
2023/10/28 10:01:15;;;;;;;25.50;3.70;;;;;;;;;;5071998;28;20062;-73
2023/10/28 10:04:04;;;;;;;31.20;2.95;;;;;;;;;;5072395;28;20045;-73
2023/10/28 10:06:31;;;;;;;20.08;2.83;;;;;;;;;;5050777;28;20041;-73
2023/10/28 10:08:59;;;;;;;29.60;3.85;;;;;;;;;;5051608;28;20048;-74
2023/10/28 10:11:27;;;;;;;18.95;2.80;;;;;;;;;;5052178;28;20029;-73
2023/10/28 10:13:55;;;;;;;25.65;2.90;;;;;;;;;;5052805;28;20108;-74
2023/10/28 10:16:28;;;;;;;;;;;;;;;;;;5052242;28;20041;-74
2023/10/28 10:18:58;;;;;;;23.20;2.97;;;;;;;;;;5050748;28;19921;-74
2023/10/28 10:21:32;;;;;;;20.08;2.58;;;;;;;;;;5052073;28;20382;-73
2023/10/28 10:24:05;;;;;;;16.85;2.28;;;;;;;;;;5052263;28;20045;-75
2023/10/28 10:26:34;;;;;;;21.35;2.80;;;;;;;;;;5050881;28;20051;-73
2023/10/28 10:29:05;;;;;;;14.82;2.10;;;;;;;;;;5084571;28;20028;-74
2023/10/28 10:31:35;;;;;;;17.05;2.10;;;;;;;;;;5091965;28;20051;-73
2023/10/28 10:34:08;;;;;;;21.70;2.60;;;;;;;;;;5084245;28;20428;-74
2023/10/28 10:36:40;;;;;;;17.60;2.67;;;;;;;;;;5092239;28;20060;-74
2023/10/28 10:39:18;;;;;;;23.85;2.70;;;;;;;;;;5093157;28;20113;-77
2023/10/28 10:41:53;;;;;;;15.10;1.85;;;;;;;;;;5073358;28;20083;-76
2023/10/28 10:44:23;;;;;;;17.67;2.40;;;;;;;;;;5064488;28;20041;-76
2023/10/28 10:46:50;;;;;;;16.65;2.33;;;;;;;;;;5054220;28;20037;-77
2023/10/28 10:49:16;;;;;;;14.13;2.53;;;;;;;;;;5053400;28;20052;-77
2023/10/28 10:51:46;;;;;;;12.60;2.15;;;;;;;;;;5055069;28;20063;-73
2023/10/28 10:54:17;;;;;;;8.35;1.48;;;;;;;;;;5053016;28;20055;-74
2023/10/28 10:56:45;;;;;;;12.65;2.03;;;;;;;;;;5054801;28;20032;-74
2023/10/28 10:59:12;;;;;;;12.15;2.00;;;;;;;;;;5054396;28;20087;-74
2023/10/28 11:01:39;;;;;;;14.13;2.85;;;;;;;;;;5062800;28;20040;-73
2023/10/28 11:04:06;;;;;;;14.38;2.30;;;;;;;;;;5081436;28;20627;-74
2023/10/28 11:06:34;;;;;;;23.57;2.93;;;;;;;;;;5080300;28;20127;-73
2023/10/28 11:09:03;;;;;;;17.15;2.63;;;;;;;;;;5075003;28;20044;-73
2023/10/28 11:11:30;;;;;;;20.63;3.85;;;;;;;;;;5065086;28;20041;-75
2023/10/28 11:13:57;;;;;;;32.47;4.65;;;;;;;;;;5076038;28;20436;-76
2023/10/28 11:16:30;;;;;;;38.63;5.25;;;;;;;;;;5074242;28;20569;-75
2023/10/28 11:18:57;;;;;;;45.22;4.75;;;;;;;;;;5074436;28;20075;-76
2023/10/28 11:21:24;;;;;;;42.22;5.90;;;;;;;;;;5074408;28;20053;-76
2023/10/28 11:23:52;;;;;;;46.75;5.72;;;;;;;;;;5074588;28;20044;-75
2023/10/28 11:26:19;;;;;;;48.15;6.38;;;;;;;;;;5074213;28;20379;-76
2023/10/28 11:28:46;;;;;;;59.63;8.20;;;;;;;;;;5073661;28;20371;-74
2023/10/28 11:31:13;;;;;;;67.97;8.23;;;;;;;;;;5073952;28;20047;-75
2023/10/28 11:33:41;;;;;;;70.03;7.90;;;;;;;;;;5074356;28;20127;-75
2023/10/28 11:36:08;;;;;;;65.25;7.63;;;;;;;;;;5074219;28;20136;-72
2023/10/28 11:38:35;;;;;;;65.30;8.38;;;;;;;;;;5085761;28;20145;-74
2023/10/28 11:41:06;;;;;;;78.18;8.73;;;;;;;;;;5094296;28;20127;-72
2023/10/28 11:43:37;;;;;;;57.65;7.30;;;;;;;;;;5092158;28;20040;-72
2023/10/28 11:46:03;;;;;;;62.58;7.68;;;;;;;;;;5082457;28;20036;-71
2023/10/28 11:48:34;;;;;;;60.38;8.52;;;;;;;;;;5071654;28;20508;-73
2023/10/28 11:51:01;;;;;;;67.18;9.77;;;;;;;;;;5063218;28;20056;-73
2023/10/28 11:53:29;;;;;;;57.40;8.15;;;;;;;;;;5069965;28;20563;-73
2023/10/28 11:55:56;;;;;;;50.23;6.90;;;;;;;;;;5072087;28;20043;-72
2023/10/28 11:58:26;;;;;;;59.05;6.63;;;;;;;;;;5070669;28;20051;-73
2023/10/28 12:00:55;;;;;;;56.60;8.73;;;;;;;;;;5068329;28;20475;-73
2023/10/28 12:03:22;;;;;;;;;;;;;;;;;;5052425;28;20446;-74
2023/10/28 12:05:49;;;;;;;64.18;10.32;;;;;;;;;;5064813;28;19927;-74
2023/10/28 12:08:16;;;;;;;64.57;9.50;;;;;;;;;;5064189;28;20094;-74
2023/10/28 12:10:43;;;;;;;56.13;8.48;;;;;;;;;;5063189;28;20044;-74
2023/10/28 12:13:14;;;;;;;67.25;8.88;;;;;;;;;;5063020;28;20467;-74
2023/10/28 12:15:42;;;;;;;72.28;10.15;;;;;;;;;;5062868;28;20040;-75
2023/10/28 12:18:09;;;;;;;70.43;8.98;;;;;;;;;;5067034;28;20072;-75
2023/10/28 12:20:37;;;;;;;72.50;9.40;;;;;;;;;;5067143;28;20482;-74
2023/10/28 12:23:04;;;;;;;68.90;9.25;;;;;;;;;;5067103;28;20671;-73
2023/10/28 12:25:34;;;;;;;67.88;7.97;;;;;;;;;;5067733;28;20036;-74
2023/10/28 12:28:00;;;;;;;70.25;10.07;;;;;;;;;;5069639;28;20044;-74
2023/10/28 12:30:27;;;;;;;52.72;7.00;;;;;;;;;;5066739;28;20392;-73
2023/10/28 12:32:55;;;;;;;68.53;8.98;;;;;;;;;;5061327;28;20036;-77
2023/10/28 12:35:25;;;;;;;68.63;8.20;;;;;;;;;;5062360;28;20045;-75
2023/10/28 12:37:52;;;;;;;69.15;8.88;;;;;;;;;;5059546;28;20159;-74
2023/10/28 12:40:19;;;;;;;73.03;9.30;;;;;;;;;;5066072;28;20045;-73
2023/10/28 12:42:48;;;;;;;73.43;10.15;;;;;;;;;;5069116;28;20067;-75
2023/10/28 12:45:14;;;;;;;70.95;9.32;;;;;;;;;;5070020;28;20048;-74
2023/10/28 12:47:44;;;;;;;69.47;8.90;;;;;;;;;;5054295;28;20052;-75
2023/10/28 12:50:16;;;;;;;87.95;22.70;;;;;;;;;;5070108;28;20040;-73
2023/10/28 12:52:44;;;;;;;70.00;12.52;;;;;;;;;;5068043;28;20052;-74
2023/10/28 12:55:11;;;;;;;73.70;10.50;;;;;;;;;;5068996;28;20391;-75
2023/10/28 12:57:38;;;;;;;58.20;9.35;;;;;;;;;;5069589;28;20048;-74
2023/10/28 13:00:10;;;;;;;57.22;8.38;;;;;;;;;;5070785;28;20036;-80
2023/10/28 13:02:37;;;;;;;52.83;13.80;;;;;;;;;;5071985;28;20048;-75
2023/10/28 13:05:04;;;;;;;46.50;11.77;;;;;;;;;;5072098;28;20424;-73
2023/10/28 13:07:32;;;;;;;45.08;16.90;;;;;;;;;;5070911;28;20536;-72
2023/10/28 13:09:59;;;;;;;48.83;7.10;;;;;;;;;;5071308;28;20048;-71
2023/10/28 13:12:26;;;;;;;31.85;6.78;;;;;;;;;;5072283;28;20090;-74
2023/10/28 13:14:53;;;;;;;30.67;5.45;;;;;;;;;;5072510;28;20123;-73
2023/10/28 13:17:20;;;;;;;41.05;6.38;;;;;;;;;;5071266;28;20047;-73
2023/10/28 13:19:47;;;;;;;47.45;5.88;;;;;;;;;;5072728;28;20060;-73
2023/10/28 13:22:14;;;;;;;36.28;7.03;;;;;;;;;;5072419;28;20128;-72
2023/10/28 13:24:40;;;;;;;46.40;12.05;;;;;;;;;;5072630;28;20048;-71
2023/10/28 13:27:07;;;;;;;55.83;14.73;;;;;;;;;;5072232;28;20047;-72
2023/10/28 13:29:34;;;;;;;45.22;11.43;;;;;;;;;;5072495;28;20287;-76
2023/10/28 13:32:04;;;;;;;50.95;13.63;;;;;;;;;;5072619;28;20060;-72
2023/10/28 13:34:31;;;;;;;35.33;10.48;;;;;;;;;;5071032;28;20044;-72
2023/10/28 13:36:58;;;;;;;27.75;6.15;;;;;;;;;;5072676;28;20040;-73
2023/10/28 13:39:27;;;;;;;22.58;3.97;;;;;;;;;;5071736;28;20437;-71
2023/10/28 13:41:55;;;;;;;31.33;7.50;;;;;;;;;;5071204;28;20127;-74
2023/10/28 13:44:21;;;;;;;29.20;4.78;;;;;;;;;;5072090;28;20049;-76
2023/10/28 13:46:48;;;;;;;24.13;5.18;;;;;;;;;;5054618;28;20387;-74
2023/10/28 13:49:17;;;;;;;21.23;3.88;;;;;;;;;;5071997;28;20049;-75
2023/10/28 13:51:47;;;;;;;28.75;5.82;;;;;;;;;;5072310;28;20041;-73
2023/10/28 13:54:15;;;;;;;18.35;3.90;;;;;;;;;;5070352;28;20391;-73
2023/10/28 13:56:41;;;;;;;26.98;4.50;;;;;;;;;;5072158;28;20037;-73
2023/10/28 13:59:10;;;;;;;33.45;7.63;;;;;;;;;;5070574;28;20049;-73
2023/10/28 14:01:37;;;;;;;23.92;4.78;;;;;;;;;;5072335;28;20060;-72
2023/10/28 14:04:05;;;;;;;18.90;3.42;;;;;;;;;;5054606;28;20128;-73
2023/10/28 14:06:32;;;;;;;21.00;4.70;;;;;;;;;;5071936;28;20135;-74
2023/10/28 14:08:59;;;;;;;25.55;4.53;;;;;;;;;;5074117;28;20028;-74
2023/10/28 14:11:26;;;;;;;27.42;7.10;;;;;;;;;;5075569;28;20040;-72
2023/10/28 14:13:53;;;;;;;31.77;5.13;;;;;;;;;;5075884;28;20044;-74
2023/10/28 14:16:20;;;;;;;33.35;4.75;;;;;;;;;;5075219;28;20052;-74
2023/10/28 14:18:51;;;;;;;33.47;4.88;;;;;;;;;;5075648;28;20041;-73
2023/10/28 14:21:19;;;;;;;26.45;4.38;;;;;;;;;;5073780;28;20132;-75
2023/10/28 14:23:47;;;;;;;40.15;5.57;;;;;;;;;;5074341;28;20044;-74
2023/10/28 14:26:14;;;;;;;34.33;5.13;;;;;;;;;;5074371;28;20048;-75
2023/10/28 14:28:44;;;;;;;28.02;3.78;;;;;;;;;;5075604;28;20053;-74
2023/10/28 14:31:11;;;;;;;26.55;4.57;;;;;;;;;;5075432;28;20067;-74
2023/10/28 14:33:38;;;;;;;31.63;4.85;;;;;;;;;;5075692;28;20044;-76
2023/10/28 14:36:06;;;;;;;29.70;6.57;;;;;;;;;;5075204;28;20405;-71